Sublimity, OR (97385)

5:40 AM PDT on October 19, 2019 (GMT -0700)
Aumsville | | Change Station

Elev 366 ft 44.84 °N, 122.87 °W | Updated 18 seconds ago

Overcast
Overcast
49.8 °F
Feels Like 50 °F
N
2.7
Wind Variable Wind from SW
Gusts 0.0 mph

Today
High -- | Low -- °F
--% Chance of Precip.
Yesterday
High -- | Low -- °F
Precip. -- in
Pressure 29.73 in
Visibility 10.0 miles
Clouds Scattered Clouds 4100 ft
Mostly Cloudy 7500 ft
Overcast 10000 ft
Windchill 50 °F
Dew Point 48 °F
Humidity 93%
Rainfall 0.35 in
Snow Depth Not available.
7:31 AM 6:19 PM
Waning Gibbous, 71% visible
METAR KSLE 191156Z AUTO 25010KT 10SM SCT041 BKN075 OVC100 11/08 A2973 RMK AO2 RAE03B36E52 SLP066 P0004 60066 70096 T01110083 10117 20100 51029
Pressure 29.73 in
Visibility 10.0 miles
Clouds Scattered Clouds 4100 ft
Mostly Cloudy 7500 ft
Overcast 10000 ft
Windchill 50 °F
Dew Point 48 °F
Humidity 93%
Rainfall 0.35 in
Snow Depth Not available.
7:31 AM 6:19 PM
Waning Gibbous, 71% visible
METAR KSLE 191156Z AUTO 25010KT 10SM SCT041 BKN075 OVC100 11/08 A2973 RMK AO2 RAE03B36E52 SLP066 P0004 60066 70096 T01110083 10117 20100 51029

Get Severe Weather Alerts

Thanks for signing up!

Be on the lookout for a verification email in your inbox.

You'll start receiving the daily forecast at 6 AM.

×

10-Day Weather Forecast

Almanac

Astronomy

Oct. 19, 2019 Rise Set
Actual Time
Civil Twilight
Nautical Twilight
Astronomical Twilight
Moon
Length of Visible Light
Length of Day
Tomorrow will be .
, % of the Moon is Illuminated

Today's Extremes

State Highs State Lows

Community

WunderPhotos

Category 6

Welcome to Category 6. This is the collective home for Weather Underground's featured writeups by Dr. Jeff Masters (right), Bob Henson (left), Chris Burt, and other regular contributors.

Nearby

Air Quality

  Air Quality AQ Index Pollutant
Not available.

Snow Depth

Station Depth Elevation

Earthquake Activity

City Distance Mag. Time & Date
Minimum magnitude displayed is 2.5.

Coastal Water Temperatures

Place Temperature

Stations

Nearby Weather Stations

Station Location Temp. Windchill Dew Point Humidity Wind Precip. Elev Updated Type
                   

Watches & Warnings

There are currently no watches in effect.